sensor_id;sensor_type;location;lat;lon;timestamp;P1;durP1;ratioP1;P2;durP2;ratioP2
29550;SDS011;16488;52.396;10.696;2022-11-15T00:00:32;25.42;;;16.42;;
29550;SDS011;16488;52.396;10.696;2022-11-15T00:02:57;30.60;;;19.45;;
29550;SDS011;16488;52.396;10.696;2022-11-15T00:05:23;26.38;;;16.75;;
29550;SDS011;16488;52.396;10.696;2022-11-15T00:07:49;26.17;;;16.50;;
29550;SDS011;16488;52.396;10.696;2022-11-15T00:10:14;29.77;;;16.60;;
29550;SDS011;16488;52.396;10.696;2022-11-15T00:12:40;27.40;;;16.70;;
29550;SDS011;16488;52.396;10.696;2022-11-15T00:15:06;28.75;;;17.23;;
29550;SDS011;16488;52.396;10.696;2022-11-15T00:17:32;29.23;;;16.17;;
29550;SDS011;16488;52.396;10.696;2022-11-15T00:19:57;24.70;;;16.55;;
29550;SDS011;16488;52.396;10.696;2022-11-15T00:22:23;29.30;;;16.92;;
29550;SDS011;16488;52.396;10.696;2022-11-15T00:24:48;29.90;;;16.77;;
29550;SDS011;16488;52.396;10.696;2022-11-15T00:27:14;28.40;;;16.77;;
29550;SDS011;16488;52.396;10.696;2022-11-15T00:29:39;26.15;;;16.00;;
29550;SDS011;16488;52.396;10.696;2022-11-15T00:32:08;28.95;;;16.48;;
29550;SDS011;16488;52.396;10.696;2022-11-15T00:34:34;29.38;;;17.67;;
29550;SDS011;16488;52.396;10.696;2022-11-15T00:37:00;28.38;;;16.63;;
29550;SDS011;16488;52.396;10.696;2022-11-15T00:39:26;26.70;;;16.45;;
29550;SDS011;16488;52.396;10.696;2022-11-15T00:41:51;29.83;;;18.08;;
29550;SDS011;16488;52.396;10.696;2022-11-15T00:44:17;26.35;;;16.20;;
29550;SDS011;16488;52.396;10.696;2022-11-15T00:46:42;30.58;;;17.88;;
29550;SDS011;16488;52.396;10.696;2022-11-15T00:49:08;29.67;;;17.53;;
29550;SDS011;16488;52.396;10.696;2022-11-15T00:51:33;28.63;;;17.20;;
29550;SDS011;16488;52.396;10.696;2022-11-15T00:53:59;26.80;;;16.50;;
29550;SDS011;16488;52.396;10.696;2022-11-15T00:56:24;29.20;;;17.02;;
29550;SDS011;16488;52.396;10.696;2022-11-15T00:58:50;26.00;;;17.30;;
29550;SDS011;16488;52.396;10.696;2022-11-15T01:01:15;29.27;;;17.58;;
29550;SDS011;16488;52.396;10.696;2022-11-15T01:03:41;28.95;;;17.92;;
29550;SDS011;16488;52.396;10.696;2022-11-15T01:06:07;27.27;;;17.52;;
29550;SDS011;16488;52.396;10.696;2022-11-15T01:08:33;30.17;;;17.40;;
29550;SDS011;16488;52.396;10.696;2022-11-15T01:11:03;25.38;;;16.35;;
29550;SDS011;16488;52.396;10.696;2022-11-15T01:13:30;31.05;;;17.42;;
29550;SDS011;16488;52.396;10.696;2022-11-15T01:15:57;32.20;;;17.90;;
29550;SDS011;16488;52.396;10.696;2022-11-15T01:18:22;30.08;;;18.40;;
29550;SDS011;16488;52.396;10.696;2022-11-15T01:20:48;26.42;;;16.73;;
29550;SDS011;16488;52.396;10.696;2022-11-15T01:23:14;24.60;;;15.77;;
29550;SDS011;16488;52.396;10.696;2022-11-15T01:25:39;25.98;;;16.45;;
29550;SDS011;16488;52.396;10.696;2022-11-15T01:28:05;30.08;;;16.27;;
29550;SDS011;16488;52.396;10.696;2022-11-15T01:30:30;27.50;;;14.82;;
29550;SDS011;16488;52.396;10.696;2022-11-15T01:32:56;25.15;;;14.98;;
29550;SDS011;16488;52.396;10.696;2022-11-15T01:35:22;30.10;;;16.83;;
29550;SDS011;16488;52.396;10.696;2022-11-15T01:37:48;27.67;;;17.13;;
29550;SDS011;16488;52.396;10.696;2022-11-15T01:40:13;26.83;;;16.73;;
29550;SDS011;16488;52.396;10.696;2022-11-15T01:42:39;29.30;;;16.65;;
29550;SDS011;16488;52.396;10.696;2022-11-15T01:45:05;29.77;;;17.13;;
29550;SDS011;16488;52.396;10.696;2022-11-15T01:47:31;30.73;;;17.48;;
29550;SDS011;16488;52.396;10.696;2022-11-15T01:50:05;27.42;;;15.98;;
29550;SDS011;16488;52.396;10.696;2022-11-15T01:52:34;25.67;;;15.65;;
29550;SDS011;16488;52.396;10.696;2022-11-15T01:55:06;25.50;;;15.70;;
29550;SDS011;16488;52.396;10.696;2022-11-15T01:57:35;25.85;;;15.95;;
29550;SDS011;16488;52.396;10.696;2022-11-15T02:00:02;27.20;;;15.32;;
29550;SDS011;16488;52.396;10.696;2022-11-15T02:02:29;29.05;;;16.45;;
29550;SDS011;16488;52.396;10.696;2022-11-15T02:04:55;30.80;;;17.20;;
29550;SDS011;16488;52.396;10.696;2022-11-15T02:07:21;27.50;;;15.77;;
29550;SDS011;16488;52.396;10.696;2022-11-15T02:09:47;27.27;;;16.13;;
29550;SDS011;16488;52.396;10.696;2022-11-15T02:12:14;33.30;;;16.85;;
29550;SDS011;16488;52.396;10.696;2022-11-15T02:14:44;25.50;;;16.23;;
29550;SDS011;16488;52.396;10.696;2022-11-15T02:31:14;25.17;;;15.95;;
29550;SDS011;16488;52.396;10.696;2022-11-15T02:34:05;30.02;;;16.27;;
29550;SDS011;16488;52.396;10.696;2022-11-15T02:39:28;25.27;;;14.20;;
29550;SDS011;16488;52.396;10.696;2022-11-15T02:42:24;23.55;;;14.40;;
29550;SDS011;16488;52.396;10.696;2022-11-15T02:45:11;25.95;;;15.10;;
29550;SDS011;16488;52.396;10.696;2022-11-15T02:47:42;25.52;;;15.93;;
29550;SDS011;16488;52.396;10.696;2022-11-15T02:50:11;28.00;;;15.60;;
29550;SDS011;16488;52.396;10.696;2022-11-15T02:52:40;27.60;;;16.25;;
29550;SDS011;16488;52.396;10.696;2022-11-15T02:55:28;28.38;;;16.77;;
29550;SDS011;16488;52.396;10.696;2022-11-15T02:58:06;27.45;;;16.52;;
29550;SDS011;16488;52.396;10.696;2022-11-15T03:00:37;26.77;;;16.70;;
29550;SDS011;16488;52.396;10.696;2022-11-15T03:06:20;25.65;;;15.85;;
29550;SDS011;16488;52.396;10.696;2022-11-15T03:08:54;28.20;;;16.23;;
29550;SDS011;16488;52.396;10.696;2022-11-15T03:11:35;29.15;;;15.77;;
29550;SDS011;16488;52.396;10.696;2022-11-15T03:16:50;31.30;;;17.38;;
29550;SDS011;16488;52.396;10.696;2022-11-15T03:19:32;27.25;;;15.85;;
29550;SDS011;16488;52.396;10.696;2022-11-15T03:22:04;26.48;;;16.30;;
29550;SDS011;16488;52.396;10.696;2022-11-15T03:24:34;26.95;;;16.70;;
29550;SDS011;16488;52.396;10.696;2022-11-15T03:27:03;30.13;;;17.15;;
29550;SDS011;16488;52.396;10.696;2022-11-15T03:29:38;35.33;;;16.42;;
29550;SDS011;16488;52.396;10.696;2022-11-15T03:32:11;26.60;;;16.65;;
29550;SDS011;16488;52.396;10.696;2022-11-15T03:34:50;28.33;;;17.25;;
29550;SDS011;16488;52.396;10.696;2022-11-15T03:37:18;33.53;;;16.23;;
29550;SDS011;16488;52.396;10.696;2022-11-15T03:39:47;26.40;;;16.35;;
29550;SDS011;16488;52.396;10.696;2022-11-15T03:42:23;27.55;;;16.25;;
29550;SDS011;16488;52.396;10.696;2022-11-15T03:44:58;31.25;;;18.00;;
29550;SDS011;16488;52.396;10.696;2022-11-15T03:47:51;26.95;;;16.92;;
29550;SDS011;16488;52.396;10.696;2022-11-15T03:50:20;33.55;;;17.80;;
29550;SDS011;16488;52.396;10.696;2022-11-15T03:52:47;34.05;;;16.52;;
29550;SDS011;16488;52.396;10.696;2022-11-15T03:55:18;28.83;;;16.75;;
29550;SDS011;16488;52.396;10.696;2022-11-15T03:57:45;30.40;;;18.00;;
29550;SDS011;16488;52.396;10.696;2022-11-15T04:00:13;28.20;;;16.50;;
29550;SDS011;16488;52.396;10.696;2022-11-15T04:02:39;29.40;;;17.25;;
29550;SDS011;16488;52.396;10.696;2022-11-15T04:05:04;27.50;;;15.90;;
29550;SDS011;16488;52.396;10.696;2022-11-15T04:07:30;26.73;;;16.38;;
29550;SDS011;16488;52.396;10.696;2022-11-15T04:09:56;33.67;;;17.23;;
29550;SDS011;16488;52.396;10.696;2022-11-15T04:12:27;30.77;;;17.65;;
29550;SDS011;16488;52.396;10.696;2022-11-15T04:15:02;31.45;;;18.30;;
29550;SDS011;16488;52.396;10.696;2022-11-15T04:18:06;29.65;;;17.50;;
29550;SDS011;16488;52.396;10.696;2022-11-15T04:20:26;29.13;;;16.02;;
29550;SDS011;16488;52.396;10.696;2022-11-15T04:26:04;27.00;;;16.08;;
29550;SDS011;16488;52.396;10.696;2022-11-15T04:28:35;26.90;;;15.32;;
29550;SDS011;16488;52.396;10.696;2022-11-15T04:31:21;30.42;;;16.75;;
29550;SDS011;16488;52.396;10.696;2022-11-15T04:33:47;28.48;;;15.88;;
29550;SDS011;16488;52.396;10.696;2022-11-15T04:36:12;28.85;;;15.73;;
29550;SDS011;16488;52.396;10.696;2022-11-15T04:38:56;24.35;;;15.02;;
29550;SDS011;16488;52.396;10.696;2022-11-15T04:41:22;27.73;;;16.45;;
29550;SDS011;16488;52.396;10.696;2022-11-15T04:43:47;25.50;;;14.75;;
29550;SDS011;16488;52.396;10.696;2022-11-15T04:46:13;26.20;;;16.33;;
29550;SDS011;16488;52.396;10.696;2022-11-15T04:48:38;26.17;;;15.00;;
29550;SDS011;16488;52.396;10.696;2022-11-15T04:51:04;25.73;;;14.40;;
29550;SDS011;16488;52.396;10.696;2022-11-15T04:53:30;26.70;;;15.52;;
29550;SDS011;16488;52.396;10.696;2022-11-15T04:55:55;30.48;;;17.88;;
29550;SDS011;16488;52.396;10.696;2022-11-15T04:58:21;36.72;;;18.48;;
29550;SDS011;16488;52.396;10.696;2022-11-15T05:00:46;35.50;;;17.88;;
29550;SDS011;16488;52.396;10.696;2022-11-15T05:03:12;26.83;;;16.60;;
29550;SDS011;16488;52.396;10.696;2022-11-15T05:05:57;29.17;;;15.18;;
29550;SDS011;16488;52.396;10.696;2022-11-15T05:08:23;27.85;;;16.02;;
29550;SDS011;16488;52.396;10.696;2022-11-15T05:10:49;30.55;;;16.15;;
29550;SDS011;16488;52.396;10.696;2022-11-15T05:13:15;27.70;;;17.02;;
29550;SDS011;16488;52.396;10.696;2022-11-15T05:15:40;25.88;;;15.35;;
29550;SDS011;16488;52.396;10.696;2022-11-15T05:18:06;27.83;;;16.50;;
29550;SDS011;16488;52.396;10.696;2022-11-15T05:20:32;30.33;;;17.08;;
29550;SDS011;16488;52.396;10.696;2022-11-15T05:22:57;31.70;;;18.42;;
29550;SDS011;16488;52.396;10.696;2022-11-15T05:25:23;45.55;;;21.98;;
29550;SDS011;16488;52.396;10.696;2022-11-15T05:27:49;54.88;;;29.85;;
29550;SDS011;16488;52.396;10.696;2022-11-15T05:30:15;44.28;;;23.15;;
29550;SDS011;16488;52.396;10.696;2022-11-15T05:32:41;46.97;;;24.25;;
29550;SDS011;16488;52.396;10.696;2022-11-15T05:35:07;41.35;;;21.45;;
29550;SDS011;16488;52.396;10.696;2022-11-15T05:37:37;39.78;;;20.05;;
29550;SDS011;16488;52.396;10.696;2022-11-15T05:40:02;32.40;;;18.08;;
29550;SDS011;16488;52.396;10.696;2022-11-15T05:42:28;38.25;;;20.50;;
29550;SDS011;16488;52.396;10.696;2022-11-15T05:47:22;29.90;;;16.63;;
29550;SDS011;16488;52.396;10.696;2022-11-15T05:49:51;34.50;;;19.42;;
29550;SDS011;16488;52.396;10.696;2022-11-15T05:52:19;43.03;;;21.70;;
29550;SDS011;16488;52.396;10.696;2022-11-15T05:54:47;37.63;;;19.73;;
29550;SDS011;16488;52.396;10.696;2022-11-15T05:57:14;35.75;;;19.65;;
29550;SDS011;16488;52.396;10.696;2022-11-15T06:02:08;31.20;;;16.70;;
29550;SDS011;16488;52.396;10.696;2022-11-15T06:04:34;31.75;;;19.58;;
29550;SDS011;16488;52.396;10.696;2022-11-15T06:06:59;40.90;;;18.00;;
29550;SDS011;16488;52.396;10.696;2022-11-15T06:09:25;34.03;;;20.00;;
29550;SDS011;16488;52.396;10.696;2022-11-15T06:11:50;40.83;;;20.05;;
29550;SDS011;16488;52.396;10.696;2022-11-15T06:14:16;38.67;;;21.25;;
29550;SDS011;16488;52.396;10.696;2022-11-15T06:16:43;39.35;;;21.63;;
29550;SDS011;16488;52.396;10.696;2022-11-15T06:19:08;38.40;;;19.52;;
29550;SDS011;16488;52.396;10.696;2022-11-15T06:21:34;41.83;;;20.98;;
29550;SDS011;16488;52.396;10.696;2022-11-15T06:24:00;36.88;;;21.10;;
29550;SDS011;16488;52.396;10.696;2022-11-15T06:26:26;37.28;;;20.95;;
29550;SDS011;16488;52.396;10.696;2022-11-15T06:28:51;36.03;;;21.20;;
29550;SDS011;16488;52.396;10.696;2022-11-15T06:31:17;40.25;;;21.45;;
29550;SDS011;16488;52.396;10.696;2022-11-15T06:33:42;37.53;;;21.83;;
29550;SDS011;16488;52.396;10.696;2022-11-15T06:36:09;40.35;;;21.90;;
29550;SDS011;16488;52.396;10.696;2022-11-15T06:38:38;43.88;;;20.83;;
29550;SDS011;16488;52.396;10.696;2022-11-15T06:41:04;39.72;;;22.45;;
29550;SDS011;16488;52.396;10.696;2022-11-15T06:43:32;38.33;;;21.25;;
29550;SDS011;16488;52.396;10.696;2022-11-15T06:48:24;36.70;;;19.48;;
29550;SDS011;16488;52.396;10.696;2022-11-15T06:50:51;43.22;;;21.90;;
29550;SDS011;16488;52.396;10.696;2022-11-15T06:53:21;38.28;;;21.75;;
29550;SDS011;16488;52.396;10.696;2022-11-15T06:55:47;35.53;;;19.27;;
29550;SDS011;16488;52.396;10.696;2022-11-15T06:58:13;38.08;;;20.92;;
29550;SDS011;16488;52.396;10.696;2022-11-15T07:00:38;37.08;;;20.40;;
29550;SDS011;16488;52.396;10.696;2022-11-15T07:03:04;40.15;;;19.95;;
29550;SDS011;16488;52.396;10.696;2022-11-15T07:05:30;37.90;;;19.40;;
29550;SDS011;16488;52.396;10.696;2022-11-15T07:07:56;38.78;;;18.45;;
29550;SDS011;16488;52.396;10.696;2022-11-15T07:10:23;39.63;;;20.85;;
29550;SDS011;16488;52.396;10.696;2022-11-15T07:12:49;40.95;;;20.80;;
29550;SDS011;16488;52.396;10.696;2022-11-15T07:15:16;41.92;;;22.27;;
29550;SDS011;16488;52.396;10.696;2022-11-15T07:17:42;42.45;;;20.88;;
29550;SDS011;16488;52.396;10.696;2022-11-15T07:20:08;53.97;;;30.42;;
29550;SDS011;16488;52.396;10.696;2022-11-15T07:22:34;43.47;;;22.60;;
29550;SDS011;16488;52.396;10.696;2022-11-15T07:25:00;46.38;;;24.48;;
29550;SDS011;16488;52.396;10.696;2022-11-15T07:27:25;44.97;;;23.08;;
29550;SDS011;16488;52.396;10.696;2022-11-15T07:29:51;44.65;;;23.35;;
29550;SDS011;16488;52.396;10.696;2022-11-15T07:32:16;42.25;;;21.08;;
29550;SDS011;16488;52.396;10.696;2022-11-15T07:34:42;35.33;;;19.88;;
29550;SDS011;16488;52.396;10.696;2022-11-15T07:37:07;38.72;;;20.42;;
29550;SDS011;16488;52.396;10.696;2022-11-15T07:39:33;41.45;;;21.48;;
29550;SDS011;16488;52.396;10.696;2022-11-15T07:41:59;36.95;;;20.30;;
29550;SDS011;16488;52.396;10.696;2022-11-15T07:44:43;35.47;;;19.08;;
29550;SDS011;16488;52.396;10.696;2022-11-15T07:47:08;32.47;;;17.45;;
29550;SDS011;16488;52.396;10.696;2022-11-15T07:49:34;34.55;;;19.13;;
29550;SDS011;16488;52.396;10.696;2022-11-15T07:51:59;36.28;;;19.98;;
29550;SDS011;16488;52.396;10.696;2022-11-15T07:54:25;41.05;;;23.42;;
29550;SDS011;16488;52.396;10.696;2022-11-15T07:56:51;37.60;;;19.95;;
29550;SDS011;16488;52.396;10.696;2022-11-15T07:59:16;33.88;;;18.77;;
29550;SDS011;16488;52.396;10.696;2022-11-15T08:01:42;33.08;;;20.02;;
29550;SDS011;16488;52.396;10.696;2022-11-15T08:04:10;33.28;;;17.20;;
29550;SDS011;16488;52.396;10.696;2022-11-15T08:06:36;31.20;;;15.88;;
29550;SDS011;16488;52.396;10.696;2022-11-15T08:09:02;29.60;;;15.85;;
29550;SDS011;16488;52.396;10.696;2022-11-15T08:11:27;27.77;;;15.63;;
29550;SDS011;16488;52.396;10.696;2022-11-15T08:13:53;22.47;;;14.43;;
29550;SDS011;16488;52.396;10.696;2022-11-15T08:16:18;26.80;;;14.53;;
29550;SDS011;16488;52.396;10.696;2022-11-15T08:18:44;20.00;;;12.30;;
29550;SDS011;16488;52.396;10.696;2022-11-15T08:21:10;25.85;;;13.23;;
29550;SDS011;16488;52.396;10.696;2022-11-15T08:23:39;30.63;;;14.63;;
29550;SDS011;16488;52.396;10.696;2022-11-15T08:26:05;24.63;;;14.13;;
29550;SDS011;16488;52.396;10.696;2022-11-15T08:28:31;22.60;;;12.73;;
29550;SDS011;16488;52.396;10.696;2022-11-15T08:30:57;17.90;;;11.45;;
29550;SDS011;16488;52.396;10.696;2022-11-15T08:33:23;17.10;;;11.35;;
29550;SDS011;16488;52.396;10.696;2022-11-15T08:35:49;20.92;;;10.32;;
29550;SDS011;16488;52.396;10.696;2022-11-15T08:38:15;21.38;;;11.18;;
29550;SDS011;16488;52.396;10.696;2022-11-15T08:40:40;17.52;;;10.32;;
29550;SDS011;16488;52.396;10.696;2022-11-15T08:43:06;13.63;;;9.73;;
29550;SDS011;16488;52.396;10.696;2022-11-15T08:45:33;15.43;;;9.65;;
29550;SDS011;16488;52.396;10.696;2022-11-15T08:48:00;20.40;;;9.35;;
29550;SDS011;16488;52.396;10.696;2022-11-15T08:50:27;14.75;;;8.98;;
29550;SDS011;16488;52.396;10.696;2022-11-15T08:52:53;11.60;;;8.32;;
29550;SDS011;16488;52.396;10.696;2022-11-15T08:55:18;16.20;;;9.25;;
29550;SDS011;16488;52.396;10.696;2022-11-15T08:57:44;14.30;;;8.20;;
29550;SDS011;16488;52.396;10.696;2022-11-15T09:00:10;16.08;;;9.18;;
29550;SDS011;16488;52.396;10.696;2022-11-15T09:02:40;15.57;;;9.20;;
29550;SDS011;16488;52.396;10.696;2022-11-15T09:05:06;17.88;;;9.00;;
29550;SDS011;16488;52.396;10.696;2022-11-15T09:07:32;12.40;;;8.55;;
29550;SDS011;16488;52.396;10.696;2022-11-15T09:09:57;12.57;;;8.75;;
29550;SDS011;16488;52.396;10.696;2022-11-15T09:12:23;14.13;;;8.35;;
29550;SDS011;16488;52.396;10.696;2022-11-15T09:14:49;14.02;;;8.18;;
29550;SDS011;16488;52.396;10.696;2022-11-15T09:17:15;13.23;;;8.35;;
29550;SDS011;16488;52.396;10.696;2022-11-15T09:19:40;13.53;;;8.67;;
29550;SDS011;16488;52.396;10.696;2022-11-15T09:22:06;12.83;;;8.93;;
29550;SDS011;16488;52.396;10.696;2022-11-15T09:26:58;17.33;;;8.88;;
29550;SDS011;16488;52.396;10.696;2022-11-15T09:29:24;16.88;;;8.00;;
29550;SDS011;16488;52.396;10.696;2022-11-15T09:31:51;13.23;;;8.07;;
29550;SDS011;16488;52.396;10.696;2022-11-15T09:34:17;13.13;;;8.70;;
29550;SDS011;16488;52.396;10.696;2022-11-15T09:36:43;21.83;;;8.40;;
29550;SDS011;16488;52.396;10.696;2022-11-15T09:39:08;13.03;;;7.57;;
29550;SDS011;16488;52.396;10.696;2022-11-15T09:44:25;14.77;;;8.73;;
29550;SDS011;16488;52.396;10.696;2022-11-15T09:49:54;11.63;;;8.27;;
29550;SDS011;16488;52.396;10.696;2022-11-15T09:52:24;14.40;;;7.80;;
29550;SDS011;16488;52.396;10.696;2022-11-15T09:54:51;12.25;;;7.00;;
29550;SDS011;16488;52.396;10.696;2022-11-15T10:00:26;10.73;;;7.20;;
29550;SDS011;16488;52.396;10.696;2022-11-15T10:05:38;11.55;;;6.47;;
29550;SDS011;16488;52.396;10.696;2022-11-15T10:08:11;9.70;;;6.65;;
29550;SDS011;16488;52.396;10.696;2022-11-15T10:10:48;13.02;;;6.75;;
29550;SDS011;16488;52.396;10.696;2022-11-15T10:13:22;11.32;;;6.13;;
29550;SDS011;16488;52.396;10.696;2022-11-15T10:15:51;10.60;;;7.07;;
29550;SDS011;16488;52.396;10.696;2022-11-15T10:18:34;10.07;;;6.43;;
29550;SDS011;16488;52.396;10.696;2022-11-15T10:21:19;11.68;;;7.18;;
29550;SDS011;16488;52.396;10.696;2022-11-15T10:23:48;14.93;;;6.68;;
29550;SDS011;16488;52.396;10.696;2022-11-15T10:26:16;13.35;;;7.05;;
29550;SDS011;16488;52.396;10.696;2022-11-15T10:28:42;12.13;;;6.78;;
29550;SDS011;16488;52.396;10.696;2022-11-15T10:31:24;12.98;;;6.13;;
29550;SDS011;16488;52.396;10.696;2022-11-15T10:33:53;9.57;;;6.47;;
29550;SDS011;16488;52.396;10.696;2022-11-15T10:36:45;10.02;;;5.93;;
29550;SDS011;16488;52.396;10.696;2022-11-15T10:39:20;15.18;;;5.78;;
29550;SDS011;16488;52.396;10.696;2022-11-15T10:41:45;8.63;;;5.97;;
29550;SDS011;16488;52.396;10.696;2022-11-15T10:49:22;10.02;;;5.68;;
29550;SDS011;16488;52.396;10.696;2022-11-15T10:51:59;12.40;;;5.75;;
29550;SDS011;16488;52.396;10.696;2022-11-15T10:54:36;10.23;;;6.10;;
29550;SDS011;16488;52.396;10.696;2022-11-15T10:57:08;11.38;;;6.10;;
29550;SDS011;16488;52.396;10.696;2022-11-15T10:59:38;7.90;;;5.22;;
29550;SDS011;16488;52.396;10.696;2022-11-15T11:04:54;11.38;;;5.57;;
29550;SDS011;16488;52.396;10.696;2022-11-15T11:07:27;11.23;;;5.63;;
29550;SDS011;16488;52.396;10.696;2022-11-15T11:12:29;10.32;;;5.00;;
29550;SDS011;16488;52.396;10.696;2022-11-15T11:14:57;7.47;;;5.38;;
29550;SDS011;16488;52.396;10.696;2022-11-15T11:23:15;7.70;;;4.25;;
29550;SDS011;16488;52.396;10.696;2022-11-15T11:28:54;9.23;;;4.50;;
29550;SDS011;16488;52.396;10.696;2022-11-15T11:31:29;10.02;;;3.80;;
29550;SDS011;16488;52.396;10.696;2022-11-15T11:34:16;6.13;;;4.55;;
29550;SDS011;16488;52.396;10.696;2022-11-15T11:44:59;13.30;;;4.40;;
29550;SDS011;16488;52.396;10.696;2022-11-15T11:47:46;6.97;;;4.60;;
29550;SDS011;16488;52.396;10.696;2022-11-15T11:50:18;8.38;;;4.15;;
29550;SDS011;16488;52.396;10.696;2022-11-15T11:52:56;8.77;;;4.63;;
29550;SDS011;16488;52.396;10.696;2022-11-15T11:55:37;7.60;;;4.35;;
29550;SDS011;16488;52.396;10.696;2022-11-15T11:58:21;8.32;;;4.13;;
29550;SDS011;16488;52.396;10.696;2022-11-15T12:03:39;5.70;;;3.60;;
29550;SDS011;16488;52.396;10.696;2022-11-15T12:08:56;6.72;;;3.75;;
29550;SDS011;16488;52.396;10.696;2022-11-15T12:11:32;4.57;;;4.05;;
29550;SDS011;16488;52.396;10.696;2022-11-15T12:14:12;8.80;;;4.20;;
29550;SDS011;16488;52.396;10.696;2022-11-15T12:17:00;8.05;;;3.78;;
29550;SDS011;16488;52.396;10.696;2022-11-15T12:19:26;7.35;;;4.35;;
29550;SDS011;16488;52.396;10.696;2022-11-15T12:24:24;6.60;;;4.18;;
29550;SDS011;16488;52.396;10.696;2022-11-15T12:26:52;9.02;;;4.25;;
29550;SDS011;16488;52.396;10.696;2022-11-15T12:29:25;6.95;;;4.03;;
29550;SDS011;16488;52.396;10.696;2022-11-15T12:31:56;6.63;;;4.22;;
29550;SDS011;16488;52.396;10.696;2022-11-15T12:34:46;7.03;;;5.25;;
29550;SDS011;16488;52.396;10.696;2022-11-15T12:45:38;15.05;;;4.38;;
29550;SDS011;16488;52.396;10.696;2022-11-15T12:58:43;6.47;;;4.07;;
29550;SDS011;16488;52.396;10.696;2022-11-15T13:01:10;7.70;;;4.53;;
29550;SDS011;16488;52.396;10.696;2022-11-15T13:06:44;8.70;;;4.82;;
29550;SDS011;16488;52.396;10.696;2022-11-15T13:11:59;5.57;;;4.00;;
29550;SDS011;16488;52.396;10.696;2022-11-15T13:22:42;9.75;;;4.57;;
29550;SDS011;16488;52.396;10.696;2022-11-15T13:25:48;6.78;;;4.18;;
29550;SDS011;16488;52.396;10.696;2022-11-15T13:31:25;11.13;;;4.72;;
29550;SDS011;16488;52.396;10.696;2022-11-15T13:33:52;9.50;;;4.88;;
29550;SDS011;16488;52.396;10.696;2022-11-15T13:36:21;7.28;;;4.45;;
29550;SDS011;16488;52.396;10.696;2022-11-15T13:41:52;8.18;;;4.32;;
29550;SDS011;16488;52.396;10.696;2022-11-15T13:44:21;11.35;;;4.65;;
29550;SDS011;16488;52.396;10.696;2022-11-15T13:47:00;10.10;;;5.35;;
29550;SDS011;16488;52.396;10.696;2022-11-15T13:49:30;7.07;;;4.38;;
29550;SDS011;16488;52.396;10.696;2022-11-15T13:51:57;10.43;;;5.15;;
29550;SDS011;16488;52.396;10.696;2022-11-15T13:57:03;10.68;;;5.03;;
29550;SDS011;16488;52.396;10.696;2022-11-15T13:59:36;7.32;;;5.13;;
29550;SDS011;16488;52.396;10.696;2022-11-15T14:02:16;14.52;;;4.93;;
29550;SDS011;16488;52.396;10.696;2022-11-15T14:04:48;7.57;;;4.97;;
29550;SDS011;16488;52.396;10.696;2022-11-15T14:07:21;7.18;;;4.15;;
29550;SDS011;16488;52.396;10.696;2022-11-15T14:09:49;9.70;;;4.80;;
29550;SDS011;16488;52.396;10.696;2022-11-15T14:12:31;5.75;;;4.35;;
29550;SDS011;16488;52.396;10.696;2022-11-15T14:15:17;10.00;;;4.47;;
29550;SDS011;16488;52.396;10.696;2022-11-15T14:17:54;8.25;;;4.68;;
29550;SDS011;16488;52.396;10.696;2022-11-15T14:20:24;7.60;;;4.68;;
29550;SDS011;16488;52.396;10.696;2022-11-15T14:22:54;9.40;;;4.85;;
29550;SDS011;16488;52.396;10.696;2022-11-15T14:25:22;8.95;;;5.65;;
29550;SDS011;16488;52.396;10.696;2022-11-15T14:30:39;12.18;;;4.80;;
29550;SDS011;16488;52.396;10.696;2022-11-15T14:33:27;12.18;;;5.53;;
29550;SDS011;16488;52.396;10.696;2022-11-15T14:35:56;10.55;;;5.63;;
29550;SDS011;16488;52.396;10.696;2022-11-15T14:38:23;8.63;;;4.75;;
29550;SDS011;16488;52.396;10.696;2022-11-15T14:40:50;10.48;;;4.93;;
29550;SDS011;16488;52.396;10.696;2022-11-15T14:43:16;16.00;;;5.83;;
29550;SDS011;16488;52.396;10.696;2022-11-15T14:45:41;8.82;;;5.22;;
29550;SDS011;16488;52.396;10.696;2022-11-15T14:48:07;10.63;;;5.40;;
29550;SDS011;16488;52.396;10.696;2022-11-15T14:50:33;12.20;;;5.60;;
29550;SDS011;16488;52.396;10.696;2022-11-15T14:52:59;10.23;;;5.75;;
29550;SDS011;16488;52.396;10.696;2022-11-15T14:55:26;11.57;;;5.35;;
29550;SDS011;16488;52.396;10.696;2022-11-15T14:57:53;14.75;;;6.25;;
29550;SDS011;16488;52.396;10.696;2022-11-15T15:00:19;9.75;;;5.70;;
29550;SDS011;16488;52.396;10.696;2022-11-15T15:02:46;9.73;;;6.50;;
29550;SDS011;16488;52.396;10.696;2022-11-15T15:05:17;10.88;;;6.75;;
29550;SDS011;16488;52.396;10.696;2022-11-15T15:07:45;15.00;;;7.95;;
29550;SDS011;16488;52.396;10.696;2022-11-15T15:10:11;11.52;;;6.20;;
29550;SDS011;16488;52.396;10.696;2022-11-15T15:12:38;10.40;;;6.75;;
29550;SDS011;16488;52.396;10.696;2022-11-15T15:15:04;13.45;;;7.93;;
29550;SDS011;16488;52.396;10.696;2022-11-15T15:19:56;18.13;;;6.88;;
29550;SDS011;16488;52.396;10.696;2022-11-15T15:22:21;11.63;;;6.80;;
29550;SDS011;16488;52.396;10.696;2022-11-15T15:24:50;11.13;;;7.28;;
29550;SDS011;16488;52.396;10.696;2022-11-15T15:27:15;12.05;;;7.03;;
29550;SDS011;16488;52.396;10.696;2022-11-15T15:29:41;12.18;;;6.95;;
29550;SDS011;16488;52.396;10.696;2022-11-15T15:32:07;15.40;;;8.00;;
29550;SDS011;16488;52.396;10.696;2022-11-15T15:34:33;16.95;;;8.25;;
29550;SDS011;16488;52.396;10.696;2022-11-15T15:39:47;14.73;;;8.75;;
29550;SDS011;16488;52.396;10.696;2022-11-15T15:42:13;13.13;;;8.00;;
29550;SDS011;16488;52.396;10.696;2022-11-15T15:44:39;16.77;;;8.57;;
29550;SDS011;16488;52.396;10.696;2022-11-15T15:47:09;15.33;;;7.97;;
29550;SDS011;16488;52.396;10.696;2022-11-15T15:49:39;14.52;;;8.52;;
29550;SDS011;16488;52.396;10.696;2022-11-15T15:52:05;14.85;;;8.55;;
29550;SDS011;16488;52.396;10.696;2022-11-15T15:54:31;20.30;;;10.07;;
29550;SDS011;16488;52.396;10.696;2022-11-15T15:56:56;15.67;;;10.10;;
29550;SDS011;16488;52.396;10.696;2022-11-15T15:59:22;14.18;;;9.18;;
29550;SDS011;16488;52.396;10.696;2022-11-15T16:01:47;22.08;;;9.63;;
29550;SDS011;16488;52.396;10.696;2022-11-15T16:04:13;17.23;;;10.60;;
29550;SDS011;16488;52.396;10.696;2022-11-15T16:06:39;15.90;;;10.50;;
29550;SDS011;16488;52.396;10.696;2022-11-15T16:09:10;18.52;;;10.20;;
29550;SDS011;16488;52.396;10.696;2022-11-15T16:11:43;18.63;;;10.93;;
29550;SDS011;16488;52.396;10.696;2022-11-15T16:14:09;21.52;;;11.35;;
29550;SDS011;16488;52.396;10.696;2022-11-15T16:16:35;20.67;;;11.30;;
29550;SDS011;16488;52.396;10.696;2022-11-15T16:19:02;19.27;;;10.77;;
29550;SDS011;16488;52.396;10.696;2022-11-15T16:21:28;21.02;;;11.00;;
29550;SDS011;16488;52.396;10.696;2022-11-15T16:23:54;17.63;;;11.30;;
29550;SDS011;16488;52.396;10.696;2022-11-15T16:26:26;24.05;;;12.45;;
29550;SDS011;16488;52.396;10.696;2022-11-15T16:28:53;20.85;;;11.68;;
29550;SDS011;16488;52.396;10.696;2022-11-15T16:31:19;20.10;;;11.40;;
29550;SDS011;16488;52.396;10.696;2022-11-15T16:33:48;22.42;;;12.27;;
29550;SDS011;16488;52.396;10.696;2022-11-15T16:36:23;15.50;;;10.53;;
29550;SDS011;16488;52.396;10.696;2022-11-15T16:38:50;18.52;;;10.68;;